Latest Weather Observations for Campania

IDT60801

Issued at 9:31 pm EST Thursday 22 June 2017 (issued every 30 minutes, with the page automatically refreshed every 10 minutes)

About weather observations | Map of weather stations | Latest weather observations for TAS | Other Formats
Station Details ID: 094212 Name: CAMPANIA (KINCORA) Lat: -42.69 Lon: 147.43 Height: 45.0 m
Data from the previous 72 hours. | See also: Recent months at Campania
Date/Time
EST
Temp
°C
App
Temp
°C
Dew
Point
°C
Rel
Hum
%
Delta-T
°C
Wind Press
QNH
hPa
Press
MSL
hPa
Rain since
9am
mm
Dir  Spd
km/h
Gust
km/h
Spd
kts
Gust
kts
22/09:30pm 5.9 0.9 1.1 71 1.9 N 17 24 9 13 - - 0.0
22/09:00pm 6.4 2.8 0.9 68 2.2 N 9 15 5 8 - - 0.0
22/08:30pm 5.9 1.2 0.9 70 2.0 N 15 20 8 11 - - 0.0
22/08:00pm 6.3 0.7 1.2 70 2.0 N 20 26 11 14 - - 0.0
22/07:30pm 5.5 1.6 0.9 72 1.8 NNW 11 17 6 9 - - 0.0
22/07:00pm 4.9 1.0 1.0 76 1.5 N 11 17 6 9 - - 0.0
22/06:30pm 4.4 0.5 0.9 78 1.4 NNW 11 15 6 8 - - 0.0
22/06:00pm 5.5 1.2 1.1 73 1.7 NNW 13 20 7 11 - - 0.0
22/05:30pm 4.2 1.0 0.5 77 1.4 WNW 7 9 4 5 - - 0.0
22/05:00pm 4.4 0.5 0.9 78 1.4 NNW 11 11 6 6 - - 0.0
22/04:30pm 7.3 4.3 1.8 68 2.2 NNW 7 9 4 5 - - 0.0
22/04:00pm 10.2 7.3 1.6 55 3.6 N 6 9 3 5 - - 0.0
22/03:30pm 11.0 8.1 1.5 52 4.0 NNW 6 11 3 6 - - 0.0
22/03:00pm 10.6 7.1 1.2 52 3.9 W 9 11 5 6 - - 0.0
22/02:30pm 11.4 8.0 1.9 52 4.1 NW 9 13 5 7 - - 0.0
22/02:00pm 10.6 6.7 1.2 52 3.9 W 11 15 6 8 - - 0.0
22/01:30pm 10.5 5.7 0.5 50 4.1 W 15 22 8 12 - - 0.0
22/01:00pm 10.8 6.2 1.4 52 3.9 NW 15 24 8 13 - - 0.0
22/12:30pm 10.5 6.3 1.9 55 3.6 WNW 13 20 7 11 - - 0.0
22/12:00pm 9.4 6.4 2.3 61 3.0 NNW 7 11 4 6 - - 0.0
22/11:30am 8.2 4.1 2.0 65 2.6 NW 13 19 7 10 - - 0.0
22/11:00am 6.4 2.2 1.7 72 1.9 NNW 13 19 7 10 - - 0.0
22/10:30am 6.0 3.2 1.9 75 1.7 NW 6 9 3 5 - - 0.0
22/10:00am 4.5 0.6 1.4 80 1.2 N 11 15 6 8 - - 0.0
22/09:30am 3.1 -1.6 0.8 85 0.9 N 15 19 8 10 - - 0.0
22/09:00am 2.2 -1.7 0.9 91 0.5 N 11 15 6 8 - - 0.0
22/08:30am -1.0 -3.6 -2.0 93 0.3 N 2 6 1 3 - - 0.0
22/08:00am -1.0 -4.4 -2.1 92 0.3 N 6 9 3 5 - - 0.0
22/07:30am -0.2 -4.8 -1.2 93 0.3 N 13 17 7 9 - - 0.0
22/07:00am -0.2 -3.7 -1.3 92 0.4 N 7 13 4 7 - - 0.0
22/06:30am 0.3 -3.9 -0.8 92 0.4 N 11 13 6 7 - - 0.0
22/06:00am -0.8 -4.2 -1.9 92 0.3 N 6 9 3 5 - - 0.0
22/05:30am 0.2 -3.6 -0.8 93 0.4 N 9 13 5 7 - - 0.0
22/05:00am 0.4 -3.8 -0.7 92 0.4 N 11 15 6 8 - - 0.0
22/04:30am 0.7 -3.4 -0.3 93 0.4 N 11 15 6 8 - - 0.0
22/04:00am 0.6 -3.9 -0.4 93 0.4 N 13 17 7 9 - - 0.0
22/03:30am 0.6 -4.3 -0.4 93 0.4 N 15 19 8 10 - - 0.0
22/03:00am 0.5 -4.4 -0.4 94 0.3 NNE 15 19 8 10 - - 0.0
22/02:30am -0.5 -4.0 -1.3 94 0.3 N 7 11 4 6 - - 0.0
22/02:00am -0.8 -4.2 -1.8 93 0.3 N 6 9 3 5 - - 0.0
22/01:30am -0.4 -5.0 -1.2 94 0.3 N 13 15 7 8 - - 0.0
22/01:00am -1.0 -5.3 -2.0 93 0.3 N 11 13 6 7 - - 0.0
22/12:30am -0.7 -5.0 -1.7 93 0.3 N 11 15 6 8 - - 0.0
22/12:00am 0.1 -5.2 -0.9 93 0.4 N 17 20 9 11 - - 0.0
 
Date/Time
EST
Temp
°C
App
Temp
°C
Dew
Point
°C
Rel
Hum
%
Delta-T
°C
Wind Press
QNH
hPa
Press
MSL
hPa
Rain since
9am
mm
Dir  Spd
km/h
Gust
km/h
Spd
kts
Gust
kts
21/11:30pm -0.3 -4.6 -1.3 93 0.3 N 11 15 6 8 - - 0.0
21/11:00pm 0.1 -4.1 -1.0 92 0.4 N 11 15 6 8 - - 0.0
21/10:30pm 0.7 -4.2 -0.6 91 0.5 N 15 17 8 9 - - 0.0
21/10:00pm 0.2 -4.0 -1.2 90 0.5 N 11 13 6 7 - - 0.0
21/09:30pm 1.8 -1.3 0.0 88 0.7 N 6 9 3 5 - - 0.0
21/09:00pm 3.0 -2.1 0.7 85 0.9 NNE 17 20 9 11 - - 0.0
21/08:30pm 3.2 -1.1 0.9 85 0.9 NNE 13 17 7 9 - - 0.0
21/08:00pm 4.1 0.6 1.5 83 1.0 N 9 15 5 8 - - 0.0
21/07:30pm 3.9 -0.4 1.1 82 1.1 N 13 15 7 8 - - 0.0
21/07:00pm 4.9 1.5 1.6 79 1.3 N 9 15 5 8 - - 0.0
21/06:30pm 4.3 -0.3 1.5 82 1.1 NNE 15 19 8 10 - - 0.0
21/06:00pm 5.0 1.0 0.6 73 1.7 NW 11 15 6 8 - - 0.0
21/05:30pm 5.8 2.1 2.3 78 1.4 WNW 11 17 6 9 - - 0.0
21/05:00pm 6.1 2.7 1.6 73 1.8 WNW 9 13 5 7 - - 0.0
21/04:30pm 7.0 3.6 1.7 69 2.2 WNW 9 13 5 7 - - 0.0
21/04:00pm 9.6 6.1 1.0 55 3.5 WNW 9 15 5 8 - - 0.0
21/03:30pm 10.3 5.6 1.2 53 3.8 WNW 15 22 8 12 - - 0.0
21/03:00pm 11.0 6.4 1.8 53 3.9 WNW 15 22 8 12 - - 0.0
21/02:30pm 10.4 6.1 1.2 53 3.8 WNW 13 20 7 11 - - 0.0
21/02:00pm 11.2 6.5 1.2 50 4.2 W 15 28 8 15 - - 0.0
21/01:30pm 10.2 5.8 0.5 51 4.0 W 13 22 7 12 - - 0.0
21/01:00pm 10.8 5.8 1.1 51 4.0 WNW 17 22 9 12 - - 0.0
21/12:30pm 9.4 4.7 0.6 54 3.6 WNW 15 24 8 13 - - 0.0
21/12:00pm 9.2 4.2 1.1 57 3.3 WSW 17 30 9 16 - - 0.0
21/11:30am 10.5 5.5 1.6 54 3.7 WSW 17 26 9 14 - - 0.0
21/11:00am 9.6 6.1 1.0 55 3.5 W 9 17 5 9 - - 0.0
21/10:30am 9.4 5.9 1.1 56 3.4 WSW 9 17 5 9 - - 0.0
21/10:00am 9.2 5.4 1.6 59 3.2 WNW 11 17 6 9 - - 0.0
21/09:30am 8.5 5.0 1.4 61 2.9 W 9 17 5 9 - - 0.0
21/09:00am 8.4 3.8 1.6 62 2.8 WSW 15 22 8 12 - - 4.6
21/08:30am 8.1 3.5 1.3 62 2.8 W 15 20 8 11 - - 4.6
21/08:00am 7.7 3.4 1.3 64 2.6 W 13 19 7 10 - - 4.6
21/07:30am 7.6 3.3 1.2 64 2.6 WNW 13 19 7 10 - - 4.6
21/07:00am 7.4 3.6 1.7 67 2.3 WNW 11 20 6 11 - - 4.6
21/06:30am 7.6 3.6 0.8 62 2.7 WNW 11 22 6 12 - - 4.6
21/06:00am 8.0 3.3 1.0 61 2.8 W 15 30 8 16 - - 4.6
21/05:30am 7.9 4.0 0.9 61 2.8 W 11 19 6 10 - - 4.6
21/05:00am 8.0 2.9 0.7 60 2.9 W 17 26 9 14 - - 4.6
21/04:30am 8.2 3.5 0.7 59 3.0 W 15 26 8 14 - - 4.6
21/04:00am 8.6 4.2 0.6 57 3.2 W 13 22 7 12 - - 4.6
21/03:30am 8.8 2.8 0.8 57 3.2 W 22 32 12 17 - - 4.6
21/03:00am 9.3 3.2 0.5 54 3.6 W 22 37 12 20 - - 4.6
21/02:31am 9.3 2.0 0.2 53 3.7 W 28 48 15 26 - - 4.6
21/02:30am 9.5 2.6 0.1 52 3.8 W 26 48 14 26 - - 4.6
21/02:00am 9.5 4.4 0.9 55 3.5 W 17 24 9 13 - - 4.6
21/01:30am 9.9 3.2 1.3 55 3.6 W 26 37 14 20 - - 4.6
21/01:20am 10.2 2.8 1.6 55 3.6 NW 30 44 16 24 - - 4.6
21/01:00am 10.2 5.6 1.6 55 3.6 N 15 26 8 14 - - 4.6
21/12:30am 9.6 4.4 3.8 67 2.5 WNW 20 39 11 21 - - 4.6
21/12:01am 10.8 3.2 3.1 59 3.4 WNW 32 54 17 29 - - 4.4
21/12:00am 10.8 3.2 3.1 59 3.4 W 32 44 17 24 - - 4.4
 
Date/Time
EST
Temp
°C
App
Temp
°C
Dew
Point
°C
Rel
Hum
%
Delta-T
°C
Wind Press
QNH
hPa
Press
MSL
hPa
Rain since
9am
mm
Dir  Spd
km/h
Gust
km/h
Spd
kts
Gust
kts
20/11:51pm 10.9 4.1 3.2 59 3.4 W 28 48 15 26 - - 4.4
20/11:30pm 10.9 6.1 4.6 65 2.8 W 19 28 10 15 - - 4.4
20/11:00pm 10.9 7.3 4.8 66 2.8 W 13 20 7 11 - - 4.4
20/10:30pm 11.8 7.5 5.2 64 3.0 WNW 17 33 9 18 - - 4.4
20/10:00pm 11.9 6.5 6.4 69 2.6 W 24 33 13 18 - - 4.4
20/09:30pm 11.7 7.2 8.7 82 1.5 W 22 35 12 19 - - 4.4
20/09:19pm 11.5 5.3 9.2 86 1.2 WSW 32 50 17 27 - - 4.2
20/09:11pm 11.8 5.3 8.8 82 1.5 WSW 33 50 18 27 - - 2.8
20/09:00pm 13.6 9.7 8.7 72 2.5 W 19 32 10 17 - - 1.0
20/08:43pm 14.5 8.7 8.0 65 3.2 WNW 28 46 15 25 - - 0.2
20/08:30pm 16.0 9.5 6.4 53 4.7 NNW 30 43 16 23 - - 0.0
20/08:00pm 15.5 8.4 5.4 51 4.8 NNW 32 50 17 27 - - 0.0
20/07:41pm 15.4 8.6 5.3 51 4.8 NW 30 48 16 26 - - 0.0
20/07:30pm 15.3 8.1 5.2 51 4.8 NNW 32 43 17 23 - - 0.0
20/07:12pm 15.5 9.1 5.1 50 4.9 NNW 28 46 15 25 - - 0.0
20/07:00pm 15.3 8.8 4.9 50 4.9 NNW 28 44 15 24 - - 0.0
20/06:31pm 15.2 8.0 5.1 51 4.8 NNW 32 50 17 27 - - 0.0
20/06:30pm 15.1 7.7 5.0 51 4.8 NNW 33 50 18 27 - - 0.0
20/06:12pm 15.9 8.5 5.2 49 5.1 NNW 33 69 18 37 - - 0.0
20/06:09pm 15.6 8.8 4.9 49 5.1 NNW 30 48 16 26 - - 0.0
20/06:00pm 15.5 9.0 4.5 48 5.1 NNW 28 43 15 23 - - 0.0
20/05:49pm 15.4 8.9 4.5 48 5.1 NNW 28 46 15 25 - - 0.0
20/05:30pm 15.6 9.0 4.3 47 5.3 NNW 28 39 15 21 - - 0.0
20/05:17pm 15.7 9.1 4.4 47 5.3 NNW 28 46 15 25 - - 0.0
20/05:00pm 15.5 10.0 4.2 47 5.3 NNW 22 35 12 19 - - 0.0
20/04:30pm 15.8 11.4 4.5 47 5.3 NW 17 35 9 19 - - 0.0
20/04:00pm 15.9 12.0 5.5 50 5.0 NW 15 24 8 13 - - 0.0
20/03:30pm 16.5 10.9 5.2 47 5.4 NNW 24 39 13 21 - - 0.0
20/03:00pm 17.0 9.7 4.7 44 5.8 NNW 32 44 17 24 - - 0.0
20/02:39pm 17.6 11.1 4.5 42 6.2 NNW 28 48 15 26 - - 0.0
20/02:30pm 17.8 12.1 4.7 42 6.3 N 24 43 13 23 - - 0.0
20/02:00pm 16.7 11.0 6.8 52 4.9 WNW 26 43 14 23 - - 0.0
20/01:37pm 18.4 11.7 5.6 43 6.3 NW 30 50 16 27 - - 0.0
20/01:30pm 18.4 12.5 5.6 43 6.3 NW 26 44 14 24 - - 0.0
20/01:23pm 18.0 11.7 5.9 45 5.9 NW 28 54 15 29 - - 0.0
20/01:00pm 17.4 11.6 6.3 48 5.5 NW 26 37 14 20 - - 0.0
20/12:30pm 16.8 11.5 6.6 51 5.0 N 24 35 13 19 - - 0.0
20/12:00pm 16.0 11.5 7.0 55 4.4 NNW 20 32 11 17 - - 0.0
20/11:30am 15.5 10.2 6.8 56 4.3 NNW 24 32 13 17 - - 0.0
20/11:00am 14.9 8.8 6.5 57 4.1 N 28 39 15 21 - - 0.0
20/10:30am 14.9 8.7 6.2 56 4.2 N 28 35 15 19 - - 0.0
20/10:00am 13.8 7.2 5.9 59 3.8 N 30 39 16 21 - - 0.0
20/09:30am 12.6 6.2 5.3 61 3.4 N 28 39 15 21 - - 0.0
20/09:00am 12.2 6.9 5.1 62 3.3 N 22 32 12 17 - - 0.0
20/08:30am 12.0 6.7 5.0 62 3.2 N 22 28 12 15 - - 0.0
20/08:00am 11.8 5.4 5.2 64 3.0 N 28 35 15 19 - - 0.0
20/07:30am 11.8 5.4 5.0 63 3.1 N 28 37 15 20 - - 0.0
20/07:00am 11.8 5.4 5.0 63 3.1 N 28 35 15 19 - - 0.0
20/06:30am 11.1 6.3 4.8 65 2.9 N 19 28 10 15 - - 0.0
20/06:00am 11.1 6.1 4.8 65 2.9 N 20 32 11 17 - - 0.0
20/05:30am 10.6 6.9 4.5 66 2.7 NNW 13 26 7 14 - - 0.0
20/05:00am 11.0 4.1 4.5 64 2.9 N 30 39 16 21 - - 0.0
20/04:30am 11.2 5.4 4.4 63 3.1 N 24 32 13 17 - - 0.0
20/04:00am 11.2 5.0 4.4 63 3.1 N 26 35 14 19 - - 0.0
20/03:30am 11.3 6.3 4.5 63 3.1 N 20 26 11 14 - - 0.0
20/03:00am 10.7 7.0 4.6 66 2.7 N 13 22 7 12 - - 0.0
20/02:30am 10.3 7.3 4.2 66 2.7 NNW 9 15 5 8 - - 0.0
20/02:00am 10.4 7.1 4.3 66 2.7 NW 11 15 6 8 - - 0.0
20/01:30am 10.4 7.1 4.8 68 2.5 N 11 15 6 8 - - 0.0
20/01:00am 8.8 6.2 4.2 73 2.0 N 7 11 4 6 - - 0.0
20/12:30am 9.3 6.8 4.9 74 2.0 NNW 7 11 4 6 - - 0.0
20/12:00am 9.2 6.8 4.4 72 2.1 NNW 6 11 3 6 - - 0.0
 
Date/Time
EST
Temp
°C
App
Temp
°C
Dew
Point
°C
Rel
Hum
%
Delta-T
°C
Wind Press
QNH
hPa
Press
MSL
hPa
Rain since
9am
mm
Dir  Spd
km/h
Gust
km/h
Spd
kts
Gust
kts
19/11:30pm 10.7 8.4 5.0 68 2.6 W 6 15 3 8 - - 0.0
19/11:00pm 11.6 7.7 5.5 66 2.8 N 15 20 8 11 - - 0.0
19/10:30pm 12.1 7.6 5.9 66 2.9 N 19 28 10 15 - - 0.0
19/10:00pm 11.6 8.5 5.7 67 2.7 NNW 11 15 6 8 - - 0.0

Other Formats:

Comma delimited format used in spreadsheet applications
http://www.bom.gov.au/fwo/IDT60801/IDT60801.95972.axf

JavaScript Object Notation format (JSON) in row-major order
http://www.bom.gov.au/fwo/IDT60801/IDT60801.95972.json